Time;durP1;ratioP1;P1;durP2;ratioP2;P2;SDS_P1;SDS_P2;PMS_P1;PMS_P2;Temp;Humidity;BMP_temperature;BMP_pressure;BME280_temperature;BME280_humidity;BME280_pressure;Samples;Min_cycle;Max_cycle;Signal;HPM_P1;HPM_P2
2021/11/17 02:26:02;;;;;;;23.13;11.20;;;;;;;3.79;100.00;101324.28;680000;29;1218;-57
2021/11/17 02:26:33;;;;;;;21.88;11.80;;;;;;;3.78;100.00;101326.00;679265;29;4891;-54
2021/11/17 02:27:13;;;;;;;23.30;11.68;;;;;;;3.79;100.00;101325.16;680034;28;1416;-54
2021/11/17 02:27:33;;;;;;;21.60;12.38;;;;;;;3.80;100.00;101313.13;680049;28;1192;-55
2021/11/17 02:28:04;;;;;;;21.80;12.13;;;;;;;3.96;100.00;101314.50;679137;28;1247;-56
2021/11/17 02:28:56;;;;;;;21.08;11.43;;;;;;;4.05;100.00;101313.09;680772;28;3477;-52
2021/11/17 02:29:48;;;;;;;22.33;11.15;;;;;;;4.12;100.00;101300.38;680345;28;4549;-52
2021/11/17 02:30:30;;;;;;;22.58;11.88;;;;;;;4.03;100.00;101301.81;679678;29;1118;-53
2021/11/17 02:31:13;;;;;;;23.55;12.27;;;;;;;3.96;100.00;101307.63;679615;29;1200;-52
2021/11/17 02:31:36;;;;;;;22.23;11.60;;;;;;;3.93;100.00;101297.16;680145;29;1228;-55
2021/11/17 02:32:14;;;;;;;22.52;11.63;;;;;;;3.91;100.00;101304.88;680193;28;1329;-53
2021/11/17 02:32:41;;;;;;;21.73;11.65;;;;;;;3.91;100.00;101307.47;679753;29;5007;-54
2021/11/17 02:33:56;;;;;;;20.85;12.13;;;;;;;3.89;100.00;101300.47;679920;29;1065;-55
2021/11/17 02:34:18;;;;;;;22.67;12.55;;;;;;;3.86;100.00;101298.69;673452;29;3549;-54
2021/11/17 02:34:57;;;;;;;22.77;12.05;;;;;;;3.86;100.00;101300.38;675762;29;1381;-53
2021/11/17 02:35:33;;;;;;;23.52;12.30;;;;;;;3.85;100.00;101299.50;674574;29;4557;-53
2021/11/17 02:36:14;;;;;;;22.58;12.52;;;;;;;3.85;100.00;101296.03;673974;29;1304;-53
2021/11/17 02:37:12;;;;;;;22.20;12.07;;;;;;;3.81;100.00;101297.66;674171;29;917;-54
2021/11/17 02:37:54;;;;;;;22.80;12.98;;;;;;;3.74;100.00;101296.56;680329;29;1156;-54
2021/11/17 02:38:14;;;;;;;23.70;12.82;;;;;;;3.74;100.00;101293.97;679598;28;4342;-55
2021/11/17 02:38:40;;;;;;;25.37;13.20;;;;;;;3.73;100.00;101296.53;680970;29;1375;-54
2021/11/17 02:39:06;;;;;;;24.25;13.15;;;;;;;3.73;100.00;101297.38;680639;29;1089;-53
2021/11/17 02:39:32;;;;;;;23.27;12.45;;;;;;;3.75;100.00;101297.44;679434;29;1077;-53
2021/11/17 02:40:11;;;;;;;25.02;12.63;;;;;;;3.74;100.00;101300.88;679645;28;3337;-55
2021/11/17 02:40:45;;;;;;;22.75;12.55;;;;;;;3.74;100.00;101293.97;685028;28;1270;-55
2021/11/17 02:41:24;;;;;;;25.20;12.80;;;;;;;3.73;100.00;101294.81;681651;28;4456;-54
2021/11/17 02:42:06;;;;;;;23.80;13.43;;;;;;;3.71;100.00;101298.16;682162;28;1057;-54
2021/11/17 02:42:51;;;;;;;24.75;12.93;;;;;;;3.69;100.00;101298.13;680080;28;1073;-53
2021/11/17 02:43:34;;;;;;;22.63;12.50;;;;;;;3.69;100.00;101298.13;681053;29;3450;-56
2021/11/17 02:44:11;;;;;;;25.67;13.35;;;;;;;3.68;100.00;101296.38;680134;29;1025;-52
2021/11/17 02:44:50;;;;;;;24.48;13.57;;;;;;;3.66;100.00;101299.75;679829;29;4808;-53
2021/11/17 02:45:40;;;;;;;27.83;13.98;;;;;;;3.67;100.00;101294.63;679462;29;1102;-54
2021/11/17 02:46:07;;;;;;;23.60;12.85;;;;;;;3.68;100.00;101298.06;680835;28;3558;-57
2021/11/17 02:46:43;;;;;;;24.25;13.07;;;;;;;3.67;100.00;101296.28;682983;28;1942;-53
2021/11/17 02:47:31;;;;;;;25.25;13.82;;;;;;;3.70;100.00;101288.66;679641;28;4360;-55
2021/11/17 02:48:08;;;;;;;24.98;13.80;;;;;;;3.68;100.00;101296.38;679771;29;1034;-53
2021/11/17 02:48:47;;;;;;;27.02;13.60;;;;;;;3.67;100.00;101286.84;680188;29;1054;-57
2021/11/17 02:49:33;;;;;;;25.10;13.80;;;;;;;3.67;100.00;101284.28;679663;28;3681;-54
2021/11/17 02:50:27;;;;;;;24.95;13.73;;;;;;;3.65;100.00;101290.22;680448;29;1205;-53
2021/11/17 02:50:47;;;;;;;25.33;13.50;;;;;;;3.64;100.00;101283.28;679801;29;5019;-57
2021/11/17 02:51:55;;;;;;;26.17;13.70;;;;;;;3.63;100.00;101285.00;678816;29;1284;-55
2021/11/17 02:52:49;;;;;;;25.90;13.75;;;;;;;3.62;100.00;101293.56;678366;28;2597;-53
2021/11/17 02:53:10;;;;;;;26.35;14.20;;;;;;;3.62;100.00;101290.97;678297;28;4409;-53
2021/11/17 02:54:00;;;;;;;27.08;14.20;;;;;;;3.57;100.00;101289.94;680192;28;1223;-55
2021/11/17 02:54:45;;;;;;;24.10;12.85;;;;;;;3.55;100.00;101286.44;679685;28;949;-56
2021/11/17 02:55:30;;;;;;;27.45;13.77;;;;;;;3.56;100.00;101289.06;679809;29;3451;-57
2021/11/17 02:55:54;;;;;;;25.63;13.20;;;;;;;3.58;100.00;101286.53;680338;29;1291;-57
2021/11/17 02:56:37;;;;;;;24.73;14.00;;;;;;;3.60;100.00;101292.66;680018;28;4650;-54
2021/11/17 02:57:09;;;;;;;27.33;14.25;;;;;;;3.63;100.00;101290.16;678699;28;1431;-55
2021/11/17 02:57:39;;;;;;;24.73;13.98;;;;;;;3.65;100.00;101291.06;679643;29;1317;-54
2021/11/17 02:58:29;;;;;;;23.17;13.70;;;;;;;3.66;100.00;101289.38;680009;28;3661;-54
2021/11/17 02:59:02;;;;;;;23.88;12.85;;;;;;;3.68;100.00;101287.72;677557;29;1417;-54
2021/11/17 02:59:22;;;;;;;26.33;13.77;;;;;;;3.69;100.00;101286.91;678628;29;4532;-55
2021/11/17 02:59:48;;;;;;;26.27;13.50;;;;;;;3.70;100.00;101288.66;679773;29;1247;-54
2021/11/17 03:00:37;;;;;;;26.98;14.30;;;;;;;3.69;100.00;101287.78;681244;28;1205;-54
2021/11/17 03:01:25;;;;;;;26.77;14.30;;;;;;;3.70;100.00;101292.13;686015;28;3988;-53
2021/11/17 03:02:19;;;;;;;25.27;14.30;;;;;;;3.73;100.00;101301.69;681506;28;1167;-53
2021/11/17 03:03:01;;;;;;;26.90;14.30;;;;;;;3.72;100.00;101300.81;679708;29;5013;-53
2021/11/17 03:03:48;;;;;;;27.83;13.80;;;;;;;3.70;100.00;101299.88;680013;28;1011;-52
2021/11/17 03:04:41;;;;;;;26.15;14.52;;;;;;;3.69;100.00;101298.13;682974;28;1382;-56
2021/11/17 03:05:10;;;;;;;27.25;14.05;;;;;;;3.69;100.00;101300.69;683423;28;1148;-57
2021/11/17 03:05:53;;;;;;;25.98;14.02;;;;;;;3.69;100.00;101290.34;684384;28;4725;-53
2021/11/17 03:06:38;;;;;;;29.00;14.52;;;;;;;3.67;100.00;101294.63;681906;28;1086;-55
2021/11/17 03:07:01;;;;;;;26.95;14.05;;;;;;;3.69;100.00;101299.84;679992;28;3383;-54
2021/11/17 03:07:50;;;;;;;26.60;14.25;;;;;;;3.67;100.00;101289.44;680208;29;1195;-54
2021/11/17 03:08:29;;;;;;;26.90;13.80;;;;;;;3.71;100.00;101287.81;679466;28;4412;-55
2021/11/17 03:09:06;;;;;;;26.75;13.68;;;;;;;3.70;100.00;101288.66;679003;29;1039;-57
2021/11/17 03:10:01;;;;;;;26.85;14.00;;;;;;;3.68;100.00;101283.44;679356;28;1073;-57
2021/11/17 03:10:47;;;;;;;30.75;15.45;;;;;;;3.79;100.00;101290.66;680794;28;1872;-54
2021/11/17 03:11:40;;;;;;;29.80;14.25;;;;;;;3.97;100.00;101280.91;679334;28;4548;-53
2021/11/17 03:12:16;;;;;;;26.20;13.98;;;;;;;3.90;100.00;101279.88;680301;29;893;-55
2021/11/17 03:12:46;;;;;;;27.42;14.38;;;;;;;3.95;100.00;101280.00;680609;28;3203;-54
2021/11/17 03:13:31;;;;;;;25.17;13.45;;;;;;;3.99;100.00;101281.84;680045;28;1308;-54
2021/11/17 03:14:17;;;;;;;25.58;13.68;;;;;;;3.97;100.00;101280.03;679226;29;1081;-57
2021/11/17 03:15:14;;;;;;;26.08;13.80;;;;;;;3.88;100.00;101281.50;678829;29;4932;-57
2021/11/17 03:15:35;;;;;;;25.38;13.45;;;;;;;3.89;100.00;101282.38;678742;28;3419;-56
2021/11/17 03:16:01;;;;;;;24.80;13.93;;;;;;;3.87;100.00;101284.91;681642;28;1093;-54
2021/11/17 03:16:31;;;;;;;26.08;13.68;;;;;;;3.84;100.00;101289.13;679600;29;990;-52
2021/11/17 03:17:05;;;;;;;29.63;14.52;;;;;;;3.83;100.00;101288.22;679946;29;825;-53
2021/11/17 03:17:44;;;;;;;26.42;14.00;;;;;;;3.79;100.00;101286.38;679226;29;5279;-56
2021/11/17 03:18:16;;;;;;;28.42;15.43;;;;;;;3.79;100.00;101286.38;678404;28;1172;-56
2021/11/17 03:18:43;;;;;;;27.75;14.73;;;;;;;3.76;100.00;101286.28;679527;28;3501;-56
2021/11/17 03:19:34;;;;;;;28.27;14.95;;;;;;;3.74;100.00;101281.06;681212;28;1256;-54
2021/11/17 03:20:01;;;;;;;28.10;15.15;;;;;;;3.75;100.00;101285.41;679290;28;1227;-54
2021/11/17 03:20:31;;;;;;;29.02;14.65;;;;;;;3.81;100.00;101279.56;679887;28;4723;-54
2021/11/17 03:21:10;;;;;;;27.50;15.10;;;;;;;3.82;100.00;101280.41;680067;29;1110;-55
2021/11/17 03:21:33;;;;;;;28.63;14.95;;;;;;;3.83;100.00;101274.41;680762;28;3097;-56
2021/11/17 03:22:00;;;;;;;30.75;15.10;;;;;;;3.83;100.00;101271.84;680221;28;1244;-54
2021/11/17 03:22:20;;;;;;;29.60;15.45;;;;;;;3.84;100.00;101278.78;680216;28;4042;-53
2021/11/17 03:23:09;;;;;;;26.92;14.80;;;;;;;3.84;100.00;101271.88;679835;28;891;-52
2021/11/17 03:23:45;;;;;;;28.50;14.70;;;;;;;3.83;100.00;101277.88;682133;28;4773;-55
2021/11/17 03:24:12;;;;;;;26.75;15.13;;;;;;;3.82;100.00;101276.16;684759;28;1107;-57
2021/11/17 03:25:05;;;;;;;28.65;14.90;;;;;;;3.82;100.00;101267.47;684867;28;3335;-54
2021/11/17 03:25:44;;;;;;;27.73;15.15;;;;;;;3.82;100.00;101265.81;682534;28;1012;-53
2021/11/17 03:26:16;;;;;;;28.25;15.00;;;;;;;3.82;100.00;101270.97;679036;28;4777;-56
2021/11/17 03:26:52;;;;;;;29.77;15.63;;;;;;;3.81;100.00;101273.47;679141;29;1976;-56
2021/11/17 03:27:18;;;;;;;28.85;15.27;;;;;;;3.82;100.00;101270.97;680287;28;1209;-56
2021/11/17 03:28:03;;;;;;;27.38;14.85;;;;;;;3.81;100.00;101276.97;679837;28;3809;-56
2021/11/17 03:28:45;;;;;;;31.38;16.63;;;;;;;3.82;100.00;101275.25;680586;28;1254;-53
2021/11/17 03:29:06;;;;;;;30.05;15.93;;;;;;;3.83;100.00;101271.84;679662;28;4490;-56
2021/11/17 03:29:55;;;;;;;28.15;15.52;;;;;;;3.83;100.00;101274.41;683784;28;1547;-56
2021/11/17 03:30:31;;;;;;;30.38;15.50;;;;;;;3.86;100.00;101277.09;681228;28;2052;-53
2021/11/17 03:31:28;;;;;;;28.63;15.30;;;;;;;3.83;100.00;101280.47;664294;28;1993;-53
2021/11/17 03:32:18;;;;;;;31.17;15.35;;;;;;;3.81;100.00;101283.81;678867;29;4817;-54
2021/11/17 03:33:12;;;;;;;28.50;15.10;;;;;;;3.78;100.00;101273.38;679628;28;1338;-56
2021/11/17 03:33:38;;;;;;;31.38;15.38;;;;;;;3.78;100.00;101284.63;678735;28;4165;-55
2021/11/17 03:34:13;;;;;;;29.60;15.63;;;;;;;3.77;100.00;101276.78;680496;28;1202;-57
2021/11/17 03:34:45;;;;;;;29.83;15.70;;;;;;;3.75;100.00;101279.34;679674;28;4363;-57
2021/11/17 03:35:20;;;;;;;29.40;15.52;;;;;;;3.75;100.00;101275.06;679149;29;6769;-54
2021/11/17 03:35:50;;;;;;;31.00;15.68;;;;;;;3.77;100.00;101281.97;679415;29;1116;-56
2021/11/17 03:36:10;;;;;;;30.48;15.95;;;;;;;3.75;100.00;101277.66;680578;29;927;-58
2021/11/17 03:36:49;;;;;;;31.87;15.60;;;;;;;3.76;100.00;101278.50;680344;28;3527;-56
2021/11/17 03:37:15;;;;;;;29.05;15.45;;;;;;;3.77;100.00;101276.78;680541;28;1074;-54
2021/11/17 03:37:54;;;;;;;31.38;15.63;;;;;;;3.75;100.00;101275.06;678954;28;4419;-53
2021/11/17 03:38:24;;;;;;;28.88;15.05;;;;;;;3.76;100.00;101283.69;679761;28;1106;-56
2021/11/17 03:38:51;;;;;;;31.27;15.38;;;;;;;3.76;100.00;101281.09;681598;28;1282;-56
2021/11/17 03:39:20;;;;;;;28.90;15.13;;;;;;;3.77;100.00;101276.78;682244;28;3103;-53
2021/11/17 03:39:58;;;;;;;32.17;15.70;;;;;;;3.75;100.00;101284.50;683307;28;7101;-56
2021/11/17 03:40:37;;;;;;;30.88;16.27;;;;;;;3.75;100.00;101282.81;680736;29;1530;-57
2021/11/17 03:41:07;;;;;;;31.10;15.60;;;;;;;3.75;100.00;101284.50;679578;29;4938;-56
2021/11/17 03:41:28;;;;;;;37.63;15.75;;;;;;;3.75;100.00;101285.41;681210;29;1122;-53
2021/11/17 03:42:07;;;;;;;33.33;15.70;;;;;;;3.77;100.00;101292.31;680345;28;1362;-54
2021/11/17 03:43:01;;;;;;;29.27;14.90;;;;;;;3.77;100.00;101281.97;680108;28;3483;-56
2021/11/17 03:43:47;;;;;;;29.35;15.27;;;;;;;3.78;100.00;101278.56;678736;29;1262;-58
2021/11/17 03:44:13;;;;;;;27.17;14.52;;;;;;;3.80;100.00;101287.25;678689;29;5282;-58
2021/11/17 03:44:39;;;;;;;29.27;15.02;;;;;;;3.81;100.00;101279.56;679807;29;1018;-55
2021/11/17 03:45:14;;;;;;;29.20;15.13;;;;;;;3.83;100.00;101279.59;680325;29;1059;-55
2021/11/17 03:45:34;;;;;;;30.10;14.82;;;;;;;3.82;100.00;101275.25;680524;28;3469;-54
2021/11/17 03:45:57;;;;;;;28.77;14.73;;;;;;;3.83;100.00;101282.19;680570;28;1535;-58
2021/11/17 03:46:30;;;;;;;27.23;14.60;;;;;;;3.84;100.00;101276.19;678871;29;1011;-54
2021/11/17 03:47:06;;;;;;;27.77;14.10;;;;;;;3.83;100.00;101280.47;679220;29;4735;-55
2021/11/17 03:47:26;;;;;;;25.67;13.93;;;;;;;3.85;100.00;101280.50;680203;28;1094;-57
2021/11/17 03:48:25;;;;;;;26.47;14.10;;;;;;;3.86;100.00;101277.09;679218;29;1256;-55
2021/11/17 03:49:23;;;;;;;28.60;14.75;;;;;;;3.86;100.00;101284.88;680115;28;1448;-56
2021/11/17 03:50:02;;;;;;;28.15;14.63;;;;;;;3.86;100.00;101282.28;675550;29;4351;-57
2021/11/17 03:50:31;;;;;;;25.70;14.30;;;;;;;3.86;100.00;101280.59;677424;29;1107;-56
2021/11/17 03:51:10;;;;;;;26.42;15.13;;;;;;;3.86;100.00;101284.88;677077;29;1117;-56
2021/11/17 03:51:48;;;;;;;26.40;14.35;;;;;;;3.86;100.00;101277.09;676978;28;2074;-57
2021/11/17 03:52:27;;;;;;;25.13;14.35;;;;;;;3.87;100.00;101278.88;679889;28;1165;-54
2021/11/17 03:52:56;;;;;;;27.48;14.75;;;;;;;3.86;100.00;101280.59;679421;28;4370;-56
2021/11/17 03:53:43;;;;;;;28.58;15.50;;;;;;;3.87;100.00;101284.03;679587;28;934;-57
2021/11/17 03:54:42;;;;;;;26.92;14.80;;;;;;;3.88;100.00;101290.97;674381;29;3348;-53
2021/11/17 03:55:24;;;;;;;27.60;15.35;;;;;;;3.86;100.00;101288.34;679950;29;1194;-57
2021/11/17 03:56:29;;;;;;;29.17;15.30;;;;;;;3.84;100.00;101296.88;679423;28;4398;-53
2021/11/17 03:57:02;;;;;;;29.63;15.38;;;;;;;3.82;100.00;101288.19;678421;29;1272;-53
2021/11/17 03:57:37;;;;;;;29.70;16.10;;;;;;;3.80;100.00;101289.84;681960;28;3507;-54
2021/11/17 03:58:32;;;;;;;29.10;15.50;;;;;;;3.82;100.00;101288.19;682827;28;1496;-54
2021/11/17 03:59:34;;;;;;;30.10;15.23;;;;;;;3.84;100.00;101294.28;681895;28;4982;-56
2021/11/17 04:00:17;;;;;;;30.05;16.05;;;;;;;3.81;100.00;101294.16;681124;28;1659;-54
2021/11/17 04:00:51;;;;;;;30.38;15.75;;;;;;;3.82;100.00;101295.94;679456;29;1269;-56
2021/11/17 04:01:29;;;;;;;28.45;15.18;;;;;;;3.83;100.00;101297.69;681849;28;1189;-54
2021/11/17 04:01:56;;;;;;;29.08;15.95;;;;;;;3.83;100.00;101297.69;682009;28;5038;-52
2021/11/17 04:02:26;;;;;;;27.70;15.70;;;;;;;3.84;100.00;101299.47;682343;28;1159;-53
2021/11/17 04:02:49;;;;;;;27.50;14.90;;;;;;;3.83;100.00;101297.69;681574;29;1323;-54
2021/11/17 04:03:25;;;;;;;27.15;15.23;;;;;;;3.83;100.00;101300.28;680224;29;3419;-55
2021/11/17 04:04:23;;;;;;;28.83;15.23;;;;;;;3.84;100.00;101304.66;680048;29;1495;-56
2021/11/17 04:05:14;;;;;;;31.05;15.70;;;;;;;3.83;100.00;101298.56;678654;28;5529;-54
2021/11/17 04:05:59;;;;;;;27.88;16.13;;;;;;;3.83;100.00;101303.75;679735;28;1021;-57
2021/11/17 04:06:38;;;;;;;28.10;15.27;;;;;;;3.82;100.00;101303.69;679498;29;3685;-55
2021/11/17 04:07:20;;;;;;;30.13;15.95;;;;;;;3.81;100.00;101304.50;679498;29;1142;-55
2021/11/17 04:07:49;;;;;;;31.05;16.27;;;;;;;3.81;100.00;101308.00;678543;28;5473;-53
2021/11/17 04:08:16;;;;;;;31.75;16.25;;;;;;;3.82;100.00;101303.69;678886;28;1035;-53
2021/11/17 04:08:42;;;;;;;32.00;16.48;;;;;;;3.83;100.00;101301.16;679164;29;1225;-53
2021/11/17 04:09:21;;;;;;;29.85;16.13;;;;;;;3.83;100.00;101302.88;679732;28;3367;-56
2021/11/17 04:10:05;;;;;;;31.23;16.02;;;;;;;3.83;100.00;101297.69;680470;29;1438;-57
2021/11/17 04:10:35;;;;;;;30.67;15.98;;;;;;;3.84;100.00;101299.47;679069;28;1101;-54
2021/11/17 04:11:17;;;;;;;28.42;15.30;;;;;;;3.84;100.00;101302.06;678964;29;4802;-52
2021/11/17 04:12:05;;;;;;;28.98;16.10;;;;;;;3.85;100.00;101304.69;679129;29;1177;-53
2021/11/17 04:12:44;;;;;;;29.13;15.98;;;;;;;3.88;100.00;101309.09;679700;29;1167;-56
2021/11/17 04:13:25;;;;;;;26.40;15.07;;;;;;;3.89;100.00;101306.56;676846;29;1312;-53
2021/11/17 04:13:46;;;;;;;31.70;16.13;;;;;;;3.88;100.00;101306.50;673595;29;4442;-55
2021/11/17 04:14:24;;;;;;;32.50;15.90;;;;;;;3.87;100.00;101309.91;674308;29;1118;-53
2021/11/17 04:15:03;;;;;;;29.02;15.90;;;;;;;3.85;100.00;101304.69;675031;29;3230;-57
2021/11/17 04:16:08;;;;;;;31.73;15.95;;;;;;;3.84;100.00;101302.91;677795;29;1173;-57
2021/11/17 04:16:55;;;;;;;32.88;16.92;;;;;;;3.84;100.00;101313.28;684781;28;1272;-54
2021/11/17 04:17:33;;;;;;;31.52;16.17;;;;;;;3.82;100.00;101316.63;678693;28;4785;-57
2021/11/17 04:18:04;;;;;;;30.33;15.77;;;;;;;3.80;100.00;101313.13;678368;29;3117;-55
2021/11/17 04:18:33;;;;;;;29.92;15.93;;;;;;;3.79;100.00;101317.41;679807;28;1235;-57
2021/11/17 04:19:17;;;;;;;32.22;16.83;;;;;;;3.79;100.00;101311.34;679693;28;1197;-53
2021/11/17 04:19:41;;;;;;;30.75;16.23;;;;;;;3.80;100.00;101314.00;678470;28;4444;-58
2021/11/17 04:20:09;;;;;;;32.90;16.52;;;;;;;3.79;100.00;101308.78;679733;29;1320;-54
2021/11/17 04:20:36;;;;;;;30.20;16.00;;;;;;;3.80;100.00;101315.72;679126;29;1229;-55
2021/11/17 04:21:33;;;;;;;31.65;16.42;;;;;;;3.82;100.00;101316.63;679707;28;3926;-55
2021/11/17 04:22:09;;;;;;;30.10;16.33;;;;;;;3.80;100.00;101318.31;679317;29;1287;-61
2021/11/17 04:22:53;;;;;;;31.25;15.52;;;;;;;3.80;100.00;101316.59;678593;28;4408;-55
2021/11/17 04:23:32;;;;;;;31.98;16.90;;;;;;;3.80;100.00;101316.59;681662;28;1062;-56
2021/11/17 04:24:11;;;;;;;33.40;16.65;;;;;;;3.82;100.00;101316.63;680937;28;2064;-53
2021/11/17 04:24:37;;;;;;;31.02;15.85;;;;;;;3.91;100.00;101317.81;681887;28;1303;-55
2021/11/17 04:25:04;;;;;;;32.03;15.80;;;;;;;3.92;100.00;101317.00;681617;28;1493;-55
2021/11/17 04:26:05;;;;;;;30.45;15.18;;;;;;;3.91;100.00;101312.63;679309;29;1121;-52
2021/11/17 04:26:44;;;;;;;28.40;15.30;;;;;;;3.90;100.00;101316.06;678211;29;4833;-56
2021/11/17 04:27:47;;;;;;;28.50;15.48;;;;;;;3.89;100.00;101319.47;678712;29;3741;-54
2021/11/17 04:28:17;;;;;;;30.23;15.63;;;;;;;3.92;100.00;101318.72;679089;28;1213;-56
2021/11/17 04:29:07;;;;;;;28.88;16.05;;;;;;;3.90;100.00;101315.19;678920;29;1247;-56
2021/11/17 04:29:45;;;;;;;30.20;15.88;;;;;;;3.89;100.00;101319.47;679362;28;2022;-53
2021/11/17 04:30:19;;;;;;;31.15;15.85;;;;;;;3.86;100.00;101315.91;679632;29;1401;-53
2021/11/17 04:30:43;;;;;;;30.52;16.10;;;;;;;3.87;100.00;101326.28;681742;28;1385;-55
2021/11/17 04:31:15;;;;;;;27.35;15.90;;;;;;;3.86;100.00;101323.66;682072;28;1412;-55
2021/11/17 04:31:57;;;;;;;30.02;15.95;;;;;;;3.85;100.00;101322.78;682409;28;4337;-56
2021/11/17 04:32:30;;;;;;;32.25;16.23;;;;;;;3.87;100.00;101328.00;682581;28;1034;-52
2021/11/17 04:33:03;;;;;;;30.00;15.57;;;;;;;3.86;100.00;101323.66;685177;28;3881;-54
2021/11/17 04:33:51;;;;;;;29.77;16.00;;;;;;;3.88;100.00;101322.88;683286;28;1276;-58
2021/11/17 04:34:37;;;;;;;31.08;16.23;;;;;;;3.91;100.00;101317.81;682657;28;1009;-55
2021/11/17 04:35:29;;;;;;;30.98;16.13;;;;;;;4.01;100.00;101319.00;678863;29;4779;-52
2021/11/17 04:35:49;;;;;;;35.13;16.30;;;;;;;4.07;100.00;101315.72;680865;28;3382;-54
2021/11/17 04:36:44;;;;;;;30.97;15.57;;;;;;;4.04;100.00;101311.34;680167;29;1300;-57
2021/11/17 04:37:31;;;;;;;28.80;15.73;;;;;;;4.01;100.00;101313.81;679613;28;1094;-54
2021/11/17 04:38:28;;;;;;;30.48;15.85;;;;;;;3.98;100.00;101318.03;679883;29;4818;-56
2021/11/17 04:38:57;;;;;;;31.98;15.65;;;;;;;4.08;100.00;101318.38;684586;28;3941;-55
2021/11/17 04:39:42;;;;;;;29.85;15.52;;;;;;;4.07;100.00;101323.47;682545;28;5909;-55
2021/11/17 04:40:17;;;;;;;28.52;14.73;;;;;;;4.07;100.00;101324.38;682346;28;1427;-55
2021/11/17 04:40:58;;;;;;;30.15;15.85;;;;;;;4.02;100.00;101320.75;678832;29;4439;-56
2021/11/17 04:41:53;;;;;;;29.17;15.50;;;;;;;3.96;100.00;101325.75;679636;28;1340;-56
2021/11/17 04:42:42;;;;;;;26.20;15.25;;;;;;;3.95;100.00;101329.16;677242;29;2293;-57
2021/11/17 04:43:08;;;;;;;28.38;15.60;;;;;;;3.94;100.00;101327.38;679678;28;1136;-55
2021/11/17 04:44:06;;;;;;;29.10;15.52;;;;;;;3.92;100.00;101335.09;680478;28;4378;-53
2021/11/17 04:44:40;;;;;;;27.48;15.10;;;;;;;3.92;100.00;101339.41;679834;28;3223;-55
2021/11/17 04:45:26;;;;;;;29.27;15.30;;;;;;;3.93;100.00;101335.97;681015;28;2562;-57
2021/11/17 04:45:58;;;;;;;30.95;15.55;;;;;;;3.92;100.00;101324.75;679721;28;1117;-52
2021/11/17 04:46:27;;;;;;;30.58;15.50;;;;;;;3.94;100.00;101332.56;680840;28;1060;-55
2021/11/17 04:47:13;;;;;;;30.08;15.65;;;;;;;3.95;100.00;101334.31;679776;28;4596;-55
2021/11/17 04:47:45;;;;;;;31.50;16.02;;;;;;;3.95;100.00;101336.03;680250;28;2026;-52
2021/11/17 04:48:21;;;;;;;28.45;15.38;;;;;;;3.92;100.00;101339.41;682201;28;1252;-53
2021/11/17 04:49:27;;;;;;;28.60;16.00;;;;;;;3.90;100.00;101338.47;683983;28;970;-55
2021/11/17 04:50:08;;;;;;;30.15;15.40;;;;;;;3.91;100.00;101337.63;679817;28;4491;-56
2021/11/17 04:51:08;;;;;;;31.25;16.02;;;;;;;3.94;100.00;101336.88;675479;29;3151;-52
2021/11/17 04:51:31;;;;;;;31.50;16.40;;;;;;;3.92;100.00;101334.22;679071;29;1363;-52
2021/11/17 04:52:13;;;;;;;31.65;16.00;;;;;;;3.91;100.00;101335.91;680370;29;1403;-53
2021/11/17 04:52:59;;;;;;;32.22;16.55;;;;;;;3.90;100.00;101335.88;675732;28;4324;-52
2021/11/17 04:53:32;;;;;;;31.40;16.20;;;;;;;3.90;100.00;101341.03;678175;29;1926;-52
2021/11/17 04:54:18;;;;;;;32.13;16.42;;;;;;;3.89;100.00;101336.69;679551;29;1472;-55
2021/11/17 04:54:56;;;;;;;29.85;15.10;;;;;;;3.90;100.00;101335.88;685517;28;1050;-53
2021/11/17 04:55:44;;;;;;;26.92;14.38;;;;;;;3.89;100.00;101340.19;684873;28;1115;-52
2021/11/17 04:56:15;;;;;;;30.33;16.00;;;;;;;3.90;100.00;101341.94;682525;28;4810;-52
2021/11/17 04:57:05;;;;;;;26.45;14.80;;;;;;;3.90;100.00;101346.22;680052;28;2328;-54
2021/11/17 04:57:37;;;;;;;31.65;15.90;;;;;;;3.92;100.00;101344.56;680725;28;1415;-56
2021/11/17 04:58:11;;;;;;;31.85;15.98;;;;;;;3.92;100.00;101344.56;679687;29;1082;-55
2021/11/17 04:58:57;;;;;;;30.50;16.20;;;;;;;3.92;100.00;101349.75;680208;28;4361;-55
2021/11/17 04:59:24;;;;;;;32.58;16.20;;;;;;;3.91;100.00;101346.25;679346;28;3277;-56
2021/11/17 05:00:05;;;;;;;32.33;15.75;;;;;;;3.91;100.00;101341.09;680831;28;3820;-56
2021/11/17 05:01:00;;;;;;;31.08;16.08;;;;;;;3.90;100.00;101347.13;678459;28;1261;-57
2021/11/17 05:01:36;;;;;;;33.17;16.10;;;;;;;3.89;100.00;101345.34;680947;28;1014;-55
2021/11/17 05:02:25;;;;;;;31.38;16.35;;;;;;;3.90;100.00;101346.22;679233;28;4956;-53
2021/11/17 05:03:21;;;;;;;32.08;15.75;;;;;;;3.87;100.00;101346.13;681291;28;1157;-55
2021/11/17 05:03:44;;;;;;;31.80;16.95;;;;;;;3.87;100.00;101347.00;679305;28;1591;-54
2021/11/17 05:04:27;;;;;;;33.25;16.25;;;;;;;3.86;100.00;101345.25;679030;28;1124;-56
2021/11/17 05:04:55;;;;;;;31.98;16.02;;;;;;;3.87;100.00;101344.41;678958;28;4435;-54
2021/11/17 05:05:53;;;;;;;33.80;16.73;;;;;;;3.86;100.00;101346.94;679229;28;3112;-55
2021/11/17 05:06:47;;;;;;;33.97;16.40;;;;;;;3.86;100.00;101344.34;683618;28;1509;-55
2021/11/17 05:07:19;;;;;;;33.33;17.10;;;;;;;3.86;100.00;101355.59;679572;29;1491;-57
2021/11/17 05:07:52;;;;;;;34.75;16.30;;;;;;;3.85;100.00;101353.84;680102;28;4434;-56
2021/11/17 05:08:13;;;;;;;32.42;16.80;;;;;;;3.85;100.00;101345.19;678710;28;3817;-53
2021/11/17 05:08:48;;;;;;;34.80;16.90;;;;;;;3.86;100.00;101352.13;677431;29;3593;-56
2021/11/17 05:09:53;;;;;;;34.75;16.65;;;;;;;3.85;100.00;101347.75;679576;28;1502;-55
2021/11/17 05:10:32;;;;;;;32.65;16.42;;;;;;;3.85;100.00;101348.66;681887;28;1109;-56
2021/11/17 05:11:14;;;;;;;33.05;15.93;;;;;;;3.86;100.00;101347.84;682150;28;5226;-54
2021/11/17 05:12:15;;;;;;;30.52;15.60;;;;;;;3.88;100.00;101353.94;682650;28;1182;-55
2021/11/17 05:13:06;;;;;;;29.30;15.80;;;;;;;3.91;100.00;101358.34;676656;29;1159;-56
2021/11/17 05:13:49;;;;;;;32.80;16.40;;;;;;;3.90;100.00;101347.13;680977;28;1212;-56
2021/11/17 05:14:28;;;;;;;32.40;16.33;;;;;;;3.90;100.00;101347.13;678653;28;4809;-52
2021/11/17 05:15:26;;;;;;;32.63;16.75;;;;;;;3.95;100.00;101348.97;682971;28;1180;-57
2021/11/17 05:16:14;;;;;;;30.85;16.13;;;;;;;3.97;100.00;101345.59;683073;28;1408;-56
2021/11/17 05:16:35;;;;;;;31.65;16.42;;;;;;;3.99;100.00;101340.47;681574;28;4482;-54
2021/11/17 05:17:04;;;;;;;31.37;16.77;;;;;;;3.98;100.00;101346.50;680449;28;1332;-54
2021/11/17 05:18:07;;;;;;;32.88;17.05;;;;;;;3.97;100.00;101343.00;681517;29;1449;-54
2021/11/17 05:19:05;;;;;;;33.53;17.10;;;;;;;3.98;100.00;101347.34;680092;29;1420;-55
2021/11/17 05:20:10;;;;;;;32.50;17.30;;;;;;;3.97;100.00;101335.25;681126;29;1355;-52
2021/11/17 05:20:48;;;;;;;29.30;16.27;;;;;;;3.96;100.00;101343.84;679411;28;5007;-53
2021/11/17 05:21:20;;;;;;;30.80;16.70;;;;;;;3.96;100.00;101348.13;679901;29;1400;-53
2021/11/17 05:22:06;;;;;;;31.58;17.00;;;;;;;3.94;100.00;101342.91;682055;28;1274;-56
2021/11/17 05:22:57;;;;;;;32.72;17.52;;;;;;;3.91;100.00;101356.63;681258;28;3266;-54
2021/11/17 05:23:43;;;;;;;33.90;16.58;;;;;;;3.89;100.00;101353.09;685321;28;1492;-54
2021/11/17 05:24:10;;;;;;;36.75;17.20;;;;;;;3.87;100.00;101359.06;685872;28;1384;-54
2021/11/17 05:24:44;;;;;;;33.88;16.75;;;;;;;3.86;100.00;101352.13;684934;28;1473;-54
2021/11/17 05:25:43;;;;;;;33.20;17.05;;;;;;;3.87;100.00;101352.16;684686;28;1268;-56
2021/11/17 05:26:24;;;;;;;33.67;16.80;;;;;;;3.88;100.00;101353.94;679944;28;6045;-57
2021/11/17 05:27:07;;;;;;;33.45;17.58;;;;;;;3.87;100.00;101346.13;680396;28;1932;-59
2021/11/17 05:27:30;;;;;;;33.97;16.98;;;;;;;3.86;100.00;101350.44;681468;28;1116;-53
2021/11/17 05:28:14;;;;;;;34.35;16.75;;;;;;;3.91;100.00;101348.00;680780;28;1426;-53